createdAt,value
2022-10-30T00:04:19.184Z,4.80
2022-10-30T00:07:09.929Z,5.45
2022-10-30T00:09:58.946Z,5.07
2022-10-30T00:12:47.840Z,4.80
2022-10-30T00:15:37.527Z,4.78
2022-10-30T00:18:27.185Z,4.57
2022-10-30T00:21:17.706Z,4.75
2022-10-30T00:24:09.790Z,4.82
2022-10-30T00:26:59.161Z,5.22
2022-10-30T00:29:48.096Z,4.90
2022-10-30T00:32:37.416Z,4.78
2022-10-30T00:35:26.956Z,5.35
2022-10-30T00:38:15.797Z,5.05
2022-10-30T00:41:07.168Z,4.68
2022-10-30T00:43:56.531Z,5.40
2022-10-30T00:46:46.047Z,5.15
2022-10-30T00:49:37.466Z,4.38
2022-10-30T00:52:29.964Z,4.15
2022-10-30T00:55:24.366Z,4.60
2022-10-30T00:58:17.860Z,4.60
2022-10-30T01:01:11.502Z,4.53
2022-10-30T01:04:02.599Z,4.80
2022-10-30T01:06:54.171Z,5.32
2022-10-30T01:09:44.260Z,4.90
2022-10-30T01:12:33.894Z,4.25
2022-10-30T01:15:29.954Z,4.82
2022-10-30T01:18:30.878Z,4.70
2022-10-30T01:21:37.385Z,5.43
2022-10-30T01:24:39.819Z,4.20
2022-10-30T01:27:40.252Z,4.82
2022-10-30T01:30:42.928Z,5.18
2022-10-30T01:33:41.371Z,5.28
2022-10-30T01:36:38.900Z,4.75
2022-10-30T01:39:30.728Z,4.57
2022-10-30T01:42:46.898Z,4.25
2022-10-30T01:46:13.758Z,3.88
2022-10-30T01:49:34.877Z,3.70
2022-10-30T01:52:32.638Z,4.78
2022-10-30T01:55:35.751Z,3.53
2022-10-30T01:58:30.120Z,3.28
2022-10-30T02:01:22.045Z,3.50
2022-10-30T02:04:13.399Z,3.53
2022-10-30T02:07:02.978Z,3.63
2022-10-30T02:09:53.173Z,3.75
2022-10-30T02:12:43.238Z,3.65
2022-10-30T02:15:33.360Z,3.20
2022-10-30T02:18:25.099Z,3.47
2022-10-30T02:21:15.528Z,3.22
2022-10-30T02:24:04.571Z,3.60
2022-10-30T02:26:53.925Z,3.30
2022-10-30T02:29:43.235Z,3.08
2022-10-30T02:32:32.414Z,2.88
2022-10-30T02:35:21.669Z,3.53
2022-10-30T02:38:12.202Z,3.75
2022-10-30T02:41:01.536Z,3.70
2022-10-30T02:43:51.973Z,3.50
2022-10-30T02:46:42.307Z,3.55
2022-10-30T02:49:31.417Z,3.03
2022-10-30T02:52:21.175Z,3.17
2022-10-30T02:55:12.519Z,3.63
2022-10-30T02:58:02.086Z,3.30
2022-10-30T03:00:51.066Z,3.35
2022-10-30T03:03:40.053Z,2.92
2022-10-30T03:06:29.579Z,3.45
2022-10-30T03:09:19.124Z,3.10
2022-10-30T03:12:09.880Z,3.40
2022-10-30T03:14:59.040Z,4.13
2022-10-30T03:17:50.029Z,3.35
2022-10-30T03:20:39.115Z,3.10
2022-10-30T03:23:28.134Z,2.95
2022-10-30T03:26:17.346Z,2.75
2022-10-30T03:29:08.556Z,2.70
2022-10-30T03:31:57.673Z,2.40
2022-10-30T03:34:47.216Z,2.45
2022-10-30T03:37:36.742Z,2.60
2022-10-30T03:40:26.578Z,2.45
2022-10-30T03:43:15.791Z,2.60
2022-10-30T03:46:06.775Z,2.60
2022-10-30T03:48:56.199Z,2.15
2022-10-30T03:51:46.050Z,2.75
2022-10-30T03:54:35.419Z,3.40
2022-10-30T03:57:24.554Z,3.05
2022-10-30T04:00:14.658Z,2.85
2022-10-30T04:03:08.072Z,3.78
2022-10-30T04:05:57.744Z,3.22
2022-10-30T04:08:46.930Z,3.50
2022-10-30T04:11:35.918Z,3.03
2022-10-30T04:14:25.305Z,3.22
2022-10-30T04:17:15.019Z,3.08
2022-10-30T04:20:05.985Z,2.80
2022-10-30T04:22:58.686Z,2.75
2022-10-30T04:25:47.630Z,2.20
2022-10-30T04:28:36.411Z,2.80
2022-10-30T04:31:26.123Z,2.70
2022-10-30T04:34:15.119Z,3.50
2022-10-30T04:37:05.808Z,2.72
2022-10-30T04:39:55.113Z,2.65
2022-10-30T04:42:43.995Z,2.70
2022-10-30T04:45:34.106Z,4.32
2022-10-30T04:48:23.581Z,2.50
2022-10-30T04:51:13.175Z,2.65
2022-10-30T04:54:03.782Z,3.22
2022-10-30T04:56:52.836Z,4.20
2022-10-30T04:59:42.290Z,2.70
2022-10-30T05:02:31.404Z,2.58
2022-10-30T05:05:21.783Z,2.58
2022-10-30T05:08:10.949Z,2.80
2022-10-30T05:11:05.650Z,2.95
2022-10-30T05:13:54.859Z,3.28
2022-10-30T05:16:44.123Z,3.28
2022-10-30T05:19:33.210Z,3.53
2022-10-30T05:22:22.783Z,2.97
2022-10-30T05:25:11.672Z,2.55
2022-10-30T05:28:04.522Z,3.72
2022-10-30T05:30:55.012Z,3.40
2022-10-30T05:33:44.449Z,3.28
2022-10-30T05:36:34.151Z,3.20
2022-10-30T05:39:23.552Z,2.90
2022-10-30T05:42:13.994Z,3.88
2022-10-30T05:45:05.134Z,3.08
2022-10-30T05:47:58.478Z,3.10
2022-10-30T05:50:48.170Z,3.20
2022-10-30T05:53:37.779Z,3.58
2022-10-30T05:56:26.985Z,3.30
2022-10-30T05:59:15.834Z,3.35
2022-10-30T06:02:07.106Z,3.40
